sensor_id;sensor_type;location;lat;lon;timestamp;P1;durP1;ratioP1;P2;durP2;ratioP2
9906;SDS011;4992;51.628;6.664;2023-02-15T00:01:19;27.57;;;15.73;;
9906;SDS011;4992;51.628;6.664;2023-02-15T00:03:47;25.47;;;17.20;;
9906;SDS011;4992;51.628;6.664;2023-02-15T00:06:13;23.13;;;15.63;;
9906;SDS011;4992;51.628;6.664;2023-02-15T00:08:39;21.00;;;15.83;;
9906;SDS011;4992;51.628;6.664;2023-02-15T00:13:34;26.77;;;16.20;;
9906;SDS011;4992;51.628;6.664;2023-02-15T00:16:02;23.27;;;14.70;;
9906;SDS011;4992;51.628;6.664;2023-02-15T00:18:28;23.00;;;15.67;;
9906;SDS011;4992;51.628;6.664;2023-02-15T00:20:54;23.73;;;15.17;;
9906;SDS011;4992;51.628;6.664;2023-02-15T00:23:20;22.20;;;15.73;;
9906;SDS011;4992;51.628;6.664;2023-02-15T00:25:46;24.43;;;15.80;;
9906;SDS011;4992;51.628;6.664;2023-02-15T00:28:12;23.30;;;16.33;;
9906;SDS011;4992;51.628;6.664;2023-02-15T00:30:38;21.37;;;15.73;;
9906;SDS011;4992;51.628;6.664;2023-02-15T00:33:03;22.10;;;16.00;;
9906;SDS011;4992;51.628;6.664;2023-02-15T00:35:29;24.40;;;17.20;;
9906;SDS011;4992;51.628;6.664;2023-02-15T00:37:55;28.77;;;18.00;;
9906;SDS011;4992;51.628;6.664;2023-02-15T00:40:22;29.03;;;18.57;;
9906;SDS011;4992;51.628;6.664;2023-02-15T00:42:48;24.47;;;17.27;;
9906;SDS011;4992;51.628;6.664;2023-02-15T00:45:14;27.43;;;17.20;;
9906;SDS011;4992;51.628;6.664;2023-02-15T00:47:40;25.97;;;17.40;;
9906;SDS011;4992;51.628;6.664;2023-02-15T00:50:06;28.40;;;18.30;;
9906;SDS011;4992;51.628;6.664;2023-02-15T00:52:32;26.40;;;18.37;;
9906;SDS011;4992;51.628;6.664;2023-02-15T00:54:58;28.80;;;18.70;;
9906;SDS011;4992;51.628;6.664;2023-02-15T00:57:24;28.37;;;18.20;;
9906;SDS011;4992;51.628;6.664;2023-02-15T00:59:50;25.03;;;17.00;;
9906;SDS011;4992;51.628;6.664;2023-02-15T01:02:16;22.40;;;16.83;;
9906;SDS011;4992;51.628;6.664;2023-02-15T01:04:42;25.80;;;17.17;;
9906;SDS011;4992;51.628;6.664;2023-02-15T01:07:08;25.80;;;18.10;;
9906;SDS011;4992;51.628;6.664;2023-02-15T01:09:34;25.13;;;17.93;;
9906;SDS011;4992;51.628;6.664;2023-02-15T01:12:00;29.00;;;18.33;;
9906;SDS011;4992;51.628;6.664;2023-02-15T01:14:26;28.80;;;17.73;;
9906;SDS011;4992;51.628;6.664;2023-02-15T01:16:51;28.17;;;17.50;;
9906;SDS011;4992;51.628;6.664;2023-02-15T01:19:18;26.60;;;17.37;;
9906;SDS011;4992;51.628;6.664;2023-02-15T01:21:43;24.10;;;16.93;;
9906;SDS011;4992;51.628;6.664;2023-02-15T01:24:13;27.13;;;17.93;;
9906;SDS011;4992;51.628;6.664;2023-02-15T01:26:39;27.87;;;17.87;;
9906;SDS011;4992;51.628;6.664;2023-02-15T01:29:05;27.90;;;17.53;;
9906;SDS011;4992;51.628;6.664;2023-02-15T01:31:31;28.03;;;18.73;;
9906;SDS011;4992;51.628;6.664;2023-02-15T01:33:57;24.63;;;16.97;;
9906;SDS011;4992;51.628;6.664;2023-02-15T01:36:23;29.73;;;19.40;;
9906;SDS011;4992;51.628;6.664;2023-02-15T01:38:49;24.87;;;16.93;;
9906;SDS011;4992;51.628;6.664;2023-02-15T01:41:15;24.27;;;17.00;;
9906;SDS011;4992;51.628;6.664;2023-02-15T01:44:01;22.70;;;16.33;;
9906;SDS011;4992;51.628;6.664;2023-02-15T01:46:32;28.07;;;17.43;;
9906;SDS011;4992;51.628;6.664;2023-02-15T01:49:03;24.10;;;16.10;;
9906;SDS011;4992;51.628;6.664;2023-02-15T01:51:30;26.60;;;16.27;;
9906;SDS011;4992;51.628;6.664;2023-02-15T01:54:07;25.63;;;16.60;;
9906;SDS011;4992;51.628;6.664;2023-02-15T01:56:36;26.53;;;16.73;;
9906;SDS011;4992;51.628;6.664;2023-02-15T01:59:05;26.03;;;16.60;;
9906;SDS011;4992;51.628;6.664;2023-02-15T02:01:32;26.67;;;17.50;;
9906;SDS011;4992;51.628;6.664;2023-02-15T02:04:03;23.83;;;17.03;;
9906;SDS011;4992;51.628;6.664;2023-02-15T02:06:32;25.33;;;17.63;;
9906;SDS011;4992;51.628;6.664;2023-02-15T02:08:59;25.73;;;16.23;;
9906;SDS011;4992;51.628;6.664;2023-02-15T02:11:25;26.53;;;17.37;;
9906;SDS011;4992;51.628;6.664;2023-02-15T02:13:51;24.87;;;17.53;;
9906;SDS011;4992;51.628;6.664;2023-02-15T02:16:27;24.03;;;17.47;;
9906;SDS011;4992;51.628;6.664;2023-02-15T02:23:58;25.13;;;17.23;;
9906;SDS011;4992;51.628;6.664;2023-02-15T02:39:23;26.37;;;18.07;;
9906;SDS011;4992;51.628;6.664;2023-02-15T02:47:07;24.07;;;16.93;;
9906;SDS011;4992;51.628;6.664;2023-02-15T02:49:38;25.07;;;16.80;;
9906;SDS011;4992;51.628;6.664;2023-02-15T02:52:06;28.17;;;17.70;;
9906;SDS011;4992;51.628;6.664;2023-02-15T02:54:33;21.23;;;16.37;;
9906;SDS011;4992;51.628;6.664;2023-02-15T02:57:02;27.67;;;18.13;;
9906;SDS011;4992;51.628;6.664;2023-02-15T02:59:30;25.63;;;16.93;;
9906;SDS011;4992;51.628;6.664;2023-02-15T03:02:00;25.63;;;17.97;;
9906;SDS011;4992;51.628;6.664;2023-02-15T03:04:33;23.93;;;16.57;;
9906;SDS011;4992;51.628;6.664;2023-02-15T03:07:02;25.00;;;16.67;;
9906;SDS011;4992;51.628;6.664;2023-02-15T03:12:19;24.83;;;16.50;;
9906;SDS011;4992;51.628;6.664;2023-02-15T03:14:56;24.80;;;16.93;;
9906;SDS011;4992;51.628;6.664;2023-02-15T03:17:25;25.77;;;16.97;;
9906;SDS011;4992;51.628;6.664;2023-02-15T03:19:52;26.13;;;16.10;;
9906;SDS011;4992;51.628;6.664;2023-02-15T03:22:24;21.97;;;16.10;;
9906;SDS011;4992;51.628;6.664;2023-02-15T03:27:37;23.80;;;16.70;;
9906;SDS011;4992;51.628;6.664;2023-02-15T03:30:05;24.63;;;15.53;;
9906;SDS011;4992;51.628;6.664;2023-02-15T03:32:31;26.67;;;16.27;;
9906;SDS011;4992;51.628;6.664;2023-02-15T03:34:58;27.03;;;16.77;;
9906;SDS011;4992;51.628;6.664;2023-02-15T03:40:19;23.77;;;16.23;;
9906;SDS011;4992;51.628;6.664;2023-02-15T03:43:11;26.80;;;17.27;;
9906;SDS011;4992;51.628;6.664;2023-02-15T03:45:38;25.43;;;17.20;;
9906;SDS011;4992;51.628;6.664;2023-02-15T03:48:19;25.10;;;17.00;;
9906;SDS011;4992;51.628;6.664;2023-02-15T03:50:45;29.43;;;18.43;;
9906;SDS011;4992;51.628;6.664;2023-02-15T03:53:30;24.70;;;17.23;;
9906;SDS011;4992;51.628;6.664;2023-02-15T03:55:56;27.27;;;17.47;;
9906;SDS011;4992;51.628;6.664;2023-02-15T03:58:22;26.70;;;17.93;;
9906;SDS011;4992;51.628;6.664;2023-02-15T04:01:14;27.73;;;18.50;;
9906;SDS011;4992;51.628;6.664;2023-02-15T04:04:07;28.30;;;17.60;;
9906;SDS011;4992;51.628;6.664;2023-02-15T04:06:34;29.77;;;19.30;;
9906;SDS011;4992;51.628;6.664;2023-02-15T04:09:00;30.77;;;18.57;;
9906;SDS011;4992;51.628;6.664;2023-02-15T04:11:45;26.93;;;18.00;;
9906;SDS011;4992;51.628;6.664;2023-02-15T04:14:11;28.27;;;17.87;;
9906;SDS011;4992;51.628;6.664;2023-02-15T04:16:55;26.33;;;17.97;;
9906;SDS011;4992;51.628;6.664;2023-02-15T04:19:21;28.00;;;18.50;;
9906;SDS011;4992;51.628;6.664;2023-02-15T04:22:06;29.03;;;18.10;;
9906;SDS011;4992;51.628;6.664;2023-02-15T04:24:50;28.53;;;18.43;;
9906;SDS011;4992;51.628;6.664;2023-02-15T04:27:35;30.27;;;18.00;;
9906;SDS011;4992;51.628;6.664;2023-02-15T04:30:01;27.97;;;18.43;;
9906;SDS011;4992;51.628;6.664;2023-02-15T04:32:27;29.73;;;17.93;;
9906;SDS011;4992;51.628;6.664;2023-02-15T04:34:53;27.53;;;17.63;;
9906;SDS011;4992;51.628;6.664;2023-02-15T04:37:19;28.93;;;19.03;;
9906;SDS011;4992;51.628;6.664;2023-02-15T04:39:45;25.97;;;17.80;;
9906;SDS011;4992;51.628;6.664;2023-02-15T04:42:11;26.77;;;17.87;;
9906;SDS011;4992;51.628;6.664;2023-02-15T04:44:37;27.87;;;19.10;;
9906;SDS011;4992;51.628;6.664;2023-02-15T04:47:03;27.37;;;19.07;;
9906;SDS011;4992;51.628;6.664;2023-02-15T04:49:29;30.90;;;19.90;;
9906;SDS011;4992;51.628;6.664;2023-02-15T04:51:55;30.60;;;19.27;;
9906;SDS011;4992;51.628;6.664;2023-02-15T04:54:21;28.23;;;19.60;;
9906;SDS011;4992;51.628;6.664;2023-02-15T04:56:47;33.07;;;20.50;;
9906;SDS011;4992;51.628;6.664;2023-02-15T04:59:12;29.83;;;19.27;;
9906;SDS011;4992;51.628;6.664;2023-02-15T05:01:39;25.67;;;17.63;;
9906;SDS011;4992;51.628;6.664;2023-02-15T05:04:04;32.00;;;19.63;;
9906;SDS011;4992;51.628;6.664;2023-02-15T05:06:30;27.83;;;18.47;;
9906;SDS011;4992;51.628;6.664;2023-02-15T05:08:56;33.70;;;18.77;;
9906;SDS011;4992;51.628;6.664;2023-02-15T05:11:24;31.77;;;19.10;;
9906;SDS011;4992;51.628;6.664;2023-02-15T05:13:50;27.10;;;18.97;;
9906;SDS011;4992;51.628;6.664;2023-02-15T05:16:16;34.17;;;19.97;;
9906;SDS011;4992;51.628;6.664;2023-02-15T05:18:42;27.90;;;19.53;;
9906;SDS011;4992;51.628;6.664;2023-02-15T05:21:08;29.70;;;19.20;;
9906;SDS011;4992;51.628;6.664;2023-02-15T05:23:34;30.27;;;20.13;;
9906;SDS011;4992;51.628;6.664;2023-02-15T05:26:00;30.47;;;19.60;;
9906;SDS011;4992;51.628;6.664;2023-02-15T05:28:45;27.40;;;18.00;;
9906;SDS011;4992;51.628;6.664;2023-02-15T05:31:14;28.20;;;19.00;;
9906;SDS011;4992;51.628;6.664;2023-02-15T05:33:41;29.90;;;18.97;;
9906;SDS011;4992;51.628;6.664;2023-02-15T05:36:08;31.73;;;18.77;;
9906;SDS011;4992;51.628;6.664;2023-02-15T05:38:34;30.43;;;20.07;;
9906;SDS011;4992;51.628;6.664;2023-02-15T05:41:02;27.33;;;18.53;;
9906;SDS011;4992;51.628;6.664;2023-02-15T05:43:29;31.77;;;21.20;;
9906;SDS011;4992;51.628;6.664;2023-02-15T05:45:55;29.77;;;19.43;;
9906;SDS011;4992;51.628;6.664;2023-02-15T05:48:22;34.80;;;21.17;;
9906;SDS011;4992;51.628;6.664;2023-02-15T05:53:23;30.73;;;20.20;;
9906;SDS011;4992;51.628;6.664;2023-02-15T05:55:49;32.37;;;19.13;;
9906;SDS011;4992;51.628;6.664;2023-02-15T05:58:15;31.43;;;20.30;;
9906;SDS011;4992;51.628;6.664;2023-02-15T06:00:41;33.90;;;21.50;;
9906;SDS011;4992;51.628;6.664;2023-02-15T06:03:07;30.37;;;20.17;;
9906;SDS011;4992;51.628;6.664;2023-02-15T06:05:33;28.67;;;19.50;;
9906;SDS011;4992;51.628;6.664;2023-02-15T06:07:59;33.93;;;19.93;;
9906;SDS011;4992;51.628;6.664;2023-02-15T06:10:25;29.70;;;19.07;;
9906;SDS011;4992;51.628;6.664;2023-02-15T06:12:50;28.20;;;19.43;;
9906;SDS011;4992;51.628;6.664;2023-02-15T06:15:16;31.53;;;19.23;;
9906;SDS011;4992;51.628;6.664;2023-02-15T06:17:42;31.20;;;19.77;;
9906;SDS011;4992;51.628;6.664;2023-02-15T06:20:09;35.53;;;23.53;;
9906;SDS011;4992;51.628;6.664;2023-02-15T06:22:35;36.10;;;22.97;;
9906;SDS011;4992;51.628;6.664;2023-02-15T06:25:01;35.13;;;21.53;;
9906;SDS011;4992;51.628;6.664;2023-02-15T06:27:27;38.63;;;21.83;;
9906;SDS011;4992;51.628;6.664;2023-02-15T06:29:52;31.20;;;20.43;;
9906;SDS011;4992;51.628;6.664;2023-02-15T06:32:18;33.20;;;20.67;;
9906;SDS011;4992;51.628;6.664;2023-02-15T06:34:44;34.10;;;21.07;;
9906;SDS011;4992;51.628;6.664;2023-02-15T06:37:10;39.80;;;20.60;;
9906;SDS011;4992;51.628;6.664;2023-02-15T06:39:36;35.00;;;19.93;;
9906;SDS011;4992;51.628;6.664;2023-02-15T06:42:02;34.57;;;20.23;;
9906;SDS011;4992;51.628;6.664;2023-02-15T06:44:28;30.47;;;20.00;;
9906;SDS011;4992;51.628;6.664;2023-02-15T06:46:54;31.40;;;20.50;;
9906;SDS011;4992;51.628;6.664;2023-02-15T06:49:20;32.73;;;21.07;;
9906;SDS011;4992;51.628;6.664;2023-02-15T06:51:46;29.70;;;20.37;;
9906;SDS011;4992;51.628;6.664;2023-02-15T06:54:12;31.60;;;20.83;;
9906;SDS011;4992;51.628;6.664;2023-02-15T06:56:38;34.13;;;20.00;;
9906;SDS011;4992;51.628;6.664;2023-02-15T06:59:04;32.20;;;22.17;;
9906;SDS011;4992;51.628;6.664;2023-02-15T07:01:30;32.73;;;21.33;;
9906;SDS011;4992;51.628;6.664;2023-02-15T07:03:56;32.00;;;20.90;;
9906;SDS011;4992;51.628;6.664;2023-02-15T07:06:22;30.17;;;20.87;;
9906;SDS011;4992;51.628;6.664;2023-02-15T07:08:48;33.40;;;21.57;;
9906;SDS011;4992;51.628;6.664;2023-02-15T07:11:14;34.23;;;21.57;;
9906;SDS011;4992;51.628;6.664;2023-02-15T07:13:59;32.63;;;21.17;;
9906;SDS011;4992;51.628;6.664;2023-02-15T07:16:25;31.97;;;21.97;;
9906;SDS011;4992;51.628;6.664;2023-02-15T07:18:51;35.43;;;21.33;;
9906;SDS011;4992;51.628;6.664;2023-02-15T07:21:16;33.30;;;22.23;;
9906;SDS011;4992;51.628;6.664;2023-02-15T07:23:42;33.43;;;21.70;;
9906;SDS011;4992;51.628;6.664;2023-02-15T07:26:08;34.10;;;22.47;;
9906;SDS011;4992;51.628;6.664;2023-02-15T07:28:35;35.53;;;23.60;;
9906;SDS011;4992;51.628;6.664;2023-02-15T07:31:01;37.07;;;23.83;;
9906;SDS011;4992;51.628;6.664;2023-02-15T07:33:29;42.50;;;25.57;;
9906;SDS011;4992;51.628;6.664;2023-02-15T07:35:56;39.90;;;26.23;;
9906;SDS011;4992;51.628;6.664;2023-02-15T07:38:23;46.03;;;27.27;;
9906;SDS011;4992;51.628;6.664;2023-02-15T07:40:49;53.17;;;29.57;;
9906;SDS011;4992;51.628;6.664;2023-02-15T07:43:14;52.90;;;29.43;;
9906;SDS011;4992;51.628;6.664;2023-02-15T07:45:40;53.07;;;30.47;;
9906;SDS011;4992;51.628;6.664;2023-02-15T07:48:06;51.27;;;29.93;;
9906;SDS011;4992;51.628;6.664;2023-02-15T07:50:33;47.73;;;27.93;;
9906;SDS011;4992;51.628;6.664;2023-02-15T07:53:00;49.43;;;29.77;;
9906;SDS011;4992;51.628;6.664;2023-02-15T07:55:26;57.23;;;30.60;;
9906;SDS011;4992;51.628;6.664;2023-02-15T07:57:52;53.10;;;30.67;;
9906;SDS011;4992;51.628;6.664;2023-02-15T08:00:21;52.43;;;30.37;;
9906;SDS011;4992;51.628;6.664;2023-02-15T08:02:50;53.53;;;29.93;;
9906;SDS011;4992;51.628;6.664;2023-02-15T08:05:36;50.90;;;28.83;;
9906;SDS011;4992;51.628;6.664;2023-02-15T08:08:03;59.83;;;31.20;;
9906;SDS011;4992;51.628;6.664;2023-02-15T08:10:28;54.73;;;31.67;;
9906;SDS011;4992;51.628;6.664;2023-02-15T08:13:13;58.47;;;31.57;;
9906;SDS011;4992;51.628;6.664;2023-02-15T08:15:39;59.47;;;32.50;;
9906;SDS011;4992;51.628;6.664;2023-02-15T08:18:05;53.10;;;32.13;;
9906;SDS011;4992;51.628;6.664;2023-02-15T08:20:31;51.40;;;31.20;;
9906;SDS011;4992;51.628;6.664;2023-02-15T08:22:57;57.03;;;31.00;;
9906;SDS011;4992;51.628;6.664;2023-02-15T08:25:23;49.33;;;29.60;;
9906;SDS011;4992;51.628;6.664;2023-02-15T08:27:49;50.37;;;30.17;;
9906;SDS011;4992;51.628;6.664;2023-02-15T08:30:15;48.27;;;27.33;;
9906;SDS011;4992;51.628;6.664;2023-02-15T08:32:41;45.40;;;26.23;;
9906;SDS011;4992;51.628;6.664;2023-02-15T08:35:07;38.03;;;25.30;;
9906;SDS011;4992;51.628;6.664;2023-02-15T08:37:33;36.60;;;23.60;;
9906;SDS011;4992;51.628;6.664;2023-02-15T08:39:59;34.80;;;23.50;;
9906;SDS011;4992;51.628;6.664;2023-02-15T08:42:25;34.23;;;23.60;;
9906;SDS011;4992;51.628;6.664;2023-02-15T08:44:51;35.20;;;22.73;;
9906;SDS011;4992;51.628;6.664;2023-02-15T08:47:17;31.80;;;22.20;;
9906;SDS011;4992;51.628;6.664;2023-02-15T08:49:43;30.23;;;20.67;;
9906;SDS011;4992;51.628;6.664;2023-02-15T08:52:08;28.90;;;20.17;;
9906;SDS011;4992;51.628;6.664;2023-02-15T08:54:34;27.47;;;19.63;;
9906;SDS011;4992;51.628;6.664;2023-02-15T08:57:00;25.50;;;17.90;;
9906;SDS011;4992;51.628;6.664;2023-02-15T08:59:26;27.27;;;19.23;;
9906;SDS011;4992;51.628;6.664;2023-02-15T09:01:52;27.43;;;19.43;;
9906;SDS011;4992;51.628;6.664;2023-02-15T09:04:19;28.03;;;19.43;;
9906;SDS011;4992;51.628;6.664;2023-02-15T09:06:46;25.80;;;18.73;;
9906;SDS011;4992;51.628;6.664;2023-02-15T09:09:13;26.33;;;19.27;;
9906;SDS011;4992;51.628;6.664;2023-02-15T09:11:40;24.10;;;17.67;;
9906;SDS011;4992;51.628;6.664;2023-02-15T09:14:07;29.47;;;18.37;;
9906;SDS011;4992;51.628;6.664;2023-02-15T09:16:34;20.43;;;16.03;;
9906;SDS011;4992;51.628;6.664;2023-02-15T09:19:00;25.40;;;17.87;;
9906;SDS011;4992;51.628;6.664;2023-02-15T09:21:26;23.83;;;17.67;;
9906;SDS011;4992;51.628;6.664;2023-02-15T09:23:55;23.37;;;16.83;;
9906;SDS011;4992;51.628;6.664;2023-02-15T09:26:22;23.30;;;17.27;;
9906;SDS011;4992;51.628;6.664;2023-02-15T09:28:51;26.47;;;18.27;;
9906;SDS011;4992;51.628;6.664;2023-02-15T09:31:18;22.07;;;16.03;;
9906;SDS011;4992;51.628;6.664;2023-02-15T09:33:45;28.17;;;17.87;;
9906;SDS011;4992;51.628;6.664;2023-02-15T09:38:43;25.07;;;17.13;;
9906;SDS011;4992;51.628;6.664;2023-02-15T09:41:14;24.43;;;16.60;;
9906;SDS011;4992;51.628;6.664;2023-02-15T09:43:50;25.33;;;16.73;;
9906;SDS011;4992;51.628;6.664;2023-02-15T09:49:09;26.63;;;18.47;;
9906;SDS011;4992;51.628;6.664;2023-02-15T09:54:05;24.93;;;16.93;;
9906;SDS011;4992;51.628;6.664;2023-02-15T09:56:42;22.33;;;17.20;;
9906;SDS011;4992;51.628;6.664;2023-02-15T09:59:28;22.53;;;16.37;;
9906;SDS011;4992;51.628;6.664;2023-02-15T10:04:40;23.83;;;16.97;;
9906;SDS011;4992;51.628;6.664;2023-02-15T10:07:13;25.43;;;17.60;;
9906;SDS011;4992;51.628;6.664;2023-02-15T10:09:52;31.57;;;18.27;;
9906;SDS011;4992;51.628;6.664;2023-02-15T10:20:21;23.23;;;17.07;;
9906;SDS011;4992;51.628;6.664;2023-02-15T10:27:45;24.07;;;18.03;;
9906;SDS011;4992;51.628;6.664;2023-02-15T10:40:11;28.60;;;18.13;;
9906;SDS011;4992;51.628;6.664;2023-02-15T10:42:48;24.23;;;17.30;;
9906;SDS011;4992;51.628;6.664;2023-02-15T10:45:37;24.57;;;16.67;;
9906;SDS011;4992;51.628;6.664;2023-02-15T10:48:32;22.73;;;16.90;;
9906;SDS011;4992;51.628;6.664;2023-02-15T10:51:02;24.17;;;17.80;;
9906;SDS011;4992;51.628;6.664;2023-02-15T10:56:08;28.60;;;17.50;;
9906;SDS011;4992;51.628;6.664;2023-02-15T10:58:47;25.10;;;16.93;;
9906;SDS011;4992;51.628;6.664;2023-02-15T11:01:18;27.47;;;18.10;;
9906;SDS011;4992;51.628;6.664;2023-02-15T11:06:17;22.47;;;17.27;;
9906;SDS011;4992;51.628;6.664;2023-02-15T11:08:49;23.03;;;17.40;;
9906;SDS011;4992;51.628;6.664;2023-02-15T11:11:35;21.83;;;16.23;;
9906;SDS011;4992;51.628;6.664;2023-02-15T11:16:52;21.63;;;15.60;;
9906;SDS011;4992;51.628;6.664;2023-02-15T11:19:21;22.13;;;14.77;;
9906;SDS011;4992;51.628;6.664;2023-02-15T11:21:49;20.13;;;15.30;;
9906;SDS011;4992;51.628;6.664;2023-02-15T11:24:17;19.83;;;15.23;;
9906;SDS011;4992;51.628;6.664;2023-02-15T11:26:46;23.77;;;15.57;;
9906;SDS011;4992;51.628;6.664;2023-02-15T11:29:15;19.33;;;15.37;;
9906;SDS011;4992;51.628;6.664;2023-02-15T11:31:45;20.43;;;15.47;;
9906;SDS011;4992;51.628;6.664;2023-02-15T11:34:23;19.07;;;14.23;;
9906;SDS011;4992;51.628;6.664;2023-02-15T11:36:52;18.50;;;15.00;;
9906;SDS011;4992;51.628;6.664;2023-02-15T11:39:20;19.13;;;15.77;;
9906;SDS011;4992;51.628;6.664;2023-02-15T11:41:53;19.80;;;15.20;;
9906;SDS011;4992;51.628;6.664;2023-02-15T11:44:22;18.43;;;14.73;;
9906;SDS011;4992;51.628;6.664;2023-02-15T11:46:49;20.80;;;15.63;;
9906;SDS011;4992;51.628;6.664;2023-02-15T11:49:31;20.48;;;16.17;;
9906;SDS011;4992;51.628;6.664;2023-02-15T11:51:57;18.27;;;14.80;;
9906;SDS011;4992;51.628;6.664;2023-02-15T11:54:26;18.10;;;14.73;;
9906;SDS011;4992;51.628;6.664;2023-02-15T11:56:54;22.60;;;15.85;;
9906;SDS011;4992;51.628;6.664;2023-02-15T11:59:24;21.02;;;15.27;;
9906;SDS011;4992;51.628;6.664;2023-02-15T12:01:52;30.83;;;16.38;;
9906;SDS011;4992;51.628;6.664;2023-02-15T12:07:02;18.48;;;16.08;;
9906;SDS011;4992;51.628;6.664;2023-02-15T12:12:21;18.23;;;15.77;;
9906;SDS011;4992;51.628;6.664;2023-02-15T12:14:51;22.10;;;14.25;;
9906;SDS011;4992;51.628;6.664;2023-02-15T12:17:18;20.10;;;14.88;;
9906;SDS011;4992;51.628;6.664;2023-02-15T12:19:46;16.33;;;14.38;;
9906;SDS011;4992;51.628;6.664;2023-02-15T12:22:22;17.55;;;14.43;;
9906;SDS011;4992;51.628;6.664;2023-02-15T12:24:49;19.08;;;15.13;;
9906;SDS011;4992;51.628;6.664;2023-02-15T12:27:17;24.63;;;14.88;;
9906;SDS011;4992;51.628;6.664;2023-02-15T12:29:45;17.60;;;13.77;;
9906;SDS011;4992;51.628;6.664;2023-02-15T12:32:19;20.38;;;16.70;;
9906;SDS011;4992;51.628;6.664;2023-02-15T12:34:47;17.15;;;14.73;;
9906;SDS011;4992;51.628;6.664;2023-02-15T12:37:16;20.42;;;14.90;;
9906;SDS011;4992;51.628;6.664;2023-02-15T12:42:18;16.65;;;14.45;;
9906;SDS011;4992;51.628;6.664;2023-02-15T12:45:00;20.27;;;14.40;;
9906;SDS011;4992;51.628;6.664;2023-02-15T12:47:27;19.83;;;13.88;;
9906;SDS011;4992;51.628;6.664;2023-02-15T12:50:05;16.10;;;14.07;;
9906;SDS011;4992;51.628;6.664;2023-02-15T12:52:36;16.80;;;14.32;;
9906;SDS011;4992;51.628;6.664;2023-02-15T12:55:18;16.58;;;14.55;;
9906;SDS011;4992;51.628;6.664;2023-02-15T12:57:44;18.55;;;14.73;;
9906;SDS011;4992;51.628;6.664;2023-02-15T13:02:51;22.08;;;14.55;;
9906;SDS011;4992;51.628;6.664;2023-02-15T13:10:29;18.60;;;14.05;;
9906;SDS011;4992;51.628;6.664;2023-02-15T13:12:55;16.30;;;14.60;;
9906;SDS011;4992;51.628;6.664;2023-02-15T13:15:23;23.05;;;13.88;;
9906;SDS011;4992;51.628;6.664;2023-02-15T13:17:51;20.83;;;14.35;;
9906;SDS011;4992;51.628;6.664;2023-02-15T13:20:20;16.48;;;14.48;;
9906;SDS011;4992;51.628;6.664;2023-02-15T13:22:48;24.05;;;15.35;;
9906;SDS011;4992;51.628;6.664;2023-02-15T13:27:42;20.10;;;14.25;;
9906;SDS011;4992;51.628;6.664;2023-02-15T13:30:22;17.38;;;14.10;;
9906;SDS011;4992;51.628;6.664;2023-02-15T13:32:49;17.88;;;14.38;;
9906;SDS011;4992;51.628;6.664;2023-02-15T13:35:17;18.42;;;15.23;;
9906;SDS011;4992;51.628;6.664;2023-02-15T13:41:30;16.00;;;14.27;;
9906;SDS011;4992;51.628;6.664;2023-02-15T13:43:42;16.98;;;14.00;;
9906;SDS011;4992;51.628;6.664;2023-02-15T13:52:15;16.42;;;14.48;;
9906;SDS011;4992;51.628;6.664;2023-02-15T14:00:02;18.00;;;14.85;;
9906;SDS011;4992;51.628;6.664;2023-02-15T14:05:21;16.58;;;14.68;;
9906;SDS011;4992;51.628;6.664;2023-02-15T14:15:32;16.98;;;14.48;;
9906;SDS011;4992;51.628;6.664;2023-02-15T14:23:51;15.48;;;13.88;;
9906;SDS011;4992;51.628;6.664;2023-02-15T14:26:24;18.02;;;13.77;;
9906;SDS011;4992;51.628;6.664;2023-02-15T14:31:45;19.50;;;14.82;;
9906;SDS011;4992;51.628;6.664;2023-02-15T14:34:25;21.80;;;14.65;;
9906;SDS011;4992;51.628;6.664;2023-02-15T14:36:56;19.73;;;14.13;;
9906;SDS011;4992;51.628;6.664;2023-02-15T14:39:31;19.02;;;15.15;;
9906;SDS011;4992;51.628;6.664;2023-02-15T14:42:27;20.13;;;15.57;;
9906;SDS011;4992;51.628;6.664;2023-02-15T14:45:00;22.83;;;15.30;;
9906;SDS011;4992;51.628;6.664;2023-02-15T14:47:32;18.88;;;14.52;;
9906;SDS011;4992;51.628;6.664;2023-02-15T14:50:10;22.00;;;14.68;;
9906;SDS011;4992;51.628;6.664;2023-02-15T14:55:36;17.92;;;13.70;;
9906;SDS011;4992;51.628;6.664;2023-02-15T14:58:09;18.90;;;14.18;;
9906;SDS011;4992;51.628;6.664;2023-02-15T15:00:37;20.95;;;15.25;;
9906;SDS011;4992;51.628;6.664;2023-02-15T15:03:09;17.92;;;14.10;;
9906;SDS011;4992;51.628;6.664;2023-02-15T15:05:36;19.48;;;14.45;;
9906;SDS011;4992;51.628;6.664;2023-02-15T15:08:21;21.75;;;15.07;;
9906;SDS011;4992;51.628;6.664;2023-02-15T15:10:48;18.55;;;14.80;;
9906;SDS011;4992;51.628;6.664;2023-02-15T15:18:46;17.02;;;13.77;;
9906;SDS011;4992;51.628;6.664;2023-02-15T15:21:51;19.05;;;14.32;;
9906;SDS011;4992;51.628;6.664;2023-02-15T15:23:58;17.27;;;13.80;;
9906;SDS011;4992;51.628;6.664;2023-02-15T15:26:28;18.58;;;13.90;;
9906;SDS011;4992;51.628;6.664;2023-02-15T15:28:56;20.10;;;14.57;;
9906;SDS011;4992;51.628;6.664;2023-02-15T15:31:31;18.05;;;13.95;;
9906;SDS011;4992;51.628;6.664;2023-02-15T15:34:21;20.20;;;14.73;;
9906;SDS011;4992;51.628;6.664;2023-02-15T15:50:13;21.08;;;14.65;;
9906;SDS011;4992;51.628;6.664;2023-02-15T15:52:40;18.63;;;13.77;;
9906;SDS011;4992;51.628;6.664;2023-02-15T15:55:13;16.48;;;14.07;;
9906;SDS011;4992;51.628;6.664;2023-02-15T15:57:41;18.83;;;13.38;;
9906;SDS011;4992;51.628;6.664;2023-02-15T16:02:50;21.30;;;14.20;;
9906;SDS011;4992;51.628;6.664;2023-02-15T16:05:16;17.70;;;13.80;;
9906;SDS011;4992;51.628;6.664;2023-02-15T16:07:42;20.52;;;13.32;;
9906;SDS011;4992;51.628;6.664;2023-02-15T16:10:19;19.63;;;13.48;;
9906;SDS011;4992;51.628;6.664;2023-02-15T16:12:45;17.25;;;13.80;;
9906;SDS011;4992;51.628;6.664;2023-02-15T16:15:16;17.63;;;13.10;;
9906;SDS011;4992;51.628;6.664;2023-02-15T16:17:43;20.17;;;14.13;;
9906;SDS011;4992;51.628;6.664;2023-02-15T16:20:23;19.23;;;13.40;;
9906;SDS011;4992;51.628;6.664;2023-02-15T16:23:39;21.90;;;13.50;;
9906;SDS011;4992;51.628;6.664;2023-02-15T16:28:10;21.73;;;13.80;;
9906;SDS011;4992;51.628;6.664;2023-02-15T16:30:37;19.67;;;14.15;;
9906;SDS011;4992;51.628;6.664;2023-02-15T16:35:33;22.05;;;13.30;;
9906;SDS011;4992;51.628;6.664;2023-02-15T16:38:00;20.02;;;13.50;;
9906;SDS011;4992;51.628;6.664;2023-02-15T16:43:19;20.77;;;13.82;;
9906;SDS011;4992;51.628;6.664;2023-02-15T16:45:48;18.57;;;13.57;;
9906;SDS011;4992;51.628;6.664;2023-02-15T16:48:16;20.77;;;14.03;;
9906;SDS011;4992;51.628;6.664;2023-02-15T16:50:46;22.03;;;13.73;;
9906;SDS011;4992;51.628;6.664;2023-02-15T16:53:16;22.43;;;14.63;;
9906;SDS011;4992;51.628;6.664;2023-02-15T16:55:43;19.00;;;13.97;;
9906;SDS011;4992;51.628;6.664;2023-02-15T16:58:13;23.07;;;15.97;;
9906;SDS011;4992;51.628;6.664;2023-02-15T17:00:40;20.70;;;13.90;;
9906;SDS011;4992;51.628;6.664;2023-02-15T17:10:36;20.00;;;13.77;;
9906;SDS011;4992;51.628;6.664;2023-02-15T17:13:10;22.50;;;15.23;;
9906;SDS011;4992;51.628;6.664;2023-02-15T17:15:38;26.00;;;15.07;;
9906;SDS011;4992;51.628;6.664;2023-02-15T17:20:30;27.97;;;14.90;;
9906;SDS011;4992;51.628;6.664;2023-02-15T17:22:57;21.93;;;14.10;;
9906;SDS011;4992;51.628;6.664;2023-02-15T17:25:25;20.37;;;14.60;;
9906;SDS011;4992;51.628;6.664;2023-02-15T17:27:53;23.30;;;15.40;;
9906;SDS011;4992;51.628;6.664;2023-02-15T17:30:33;20.70;;;14.47;;
9906;SDS011;4992;51.628;6.664;2023-02-15T17:33:00;22.60;;;14.20;;
9906;SDS011;4992;51.628;6.664;2023-02-15T17:35:27;18.40;;;14.00;;
9906;SDS011;4992;51.628;6.664;2023-02-15T17:38:16;26.77;;;17.37;;
9906;SDS011;4992;51.628;6.664;2023-02-15T17:40:42;23.67;;;15.73;;
9906;SDS011;4992;51.628;6.664;2023-02-15T17:43:08;19.40;;;15.20;;
9906;SDS011;4992;51.628;6.664;2023-02-15T17:45:35;19.70;;;14.43;;
9906;SDS011;4992;51.628;6.664;2023-02-15T17:48:02;21.03;;;13.87;;
9906;SDS011;4992;51.628;6.664;2023-02-15T17:50:29;19.70;;;14.73;;
9906;SDS011;4992;51.628;6.664;2023-02-15T17:52:56;21.10;;;13.90;;